Main page
METAR-TAF:

METAR-TAF

Airports :

Heimdal, Norway

Oil platform

latitude: 59-34-12N, longitude: 2-13-48E, elevation: 10 m

Current weather observation

The report was made 28 minutes ago, at 06:50 UTC
Wind 18 kt from the West/Southwest
Temperature 13°C
Humidity 82%
Pressure 994 hPa
Visibility 10 km or more
Few clouds at a height of 1500 ft
Scattered clouds at a height of 3500 ft

METAR: ENHM 190650Z 25018KT 9999 FEW015 SCT035 13/10 Q0994 W15/S5

Time: 09:18 (07:18 UTC)

Forecast

The report was made 2 hours and 18 minutes ago, at 05:00 UTC
Forecast valid from 19 at 06 UTC to 19 at 15 UTC
Wind 25 kt from the West
Visibility 10 km or more
Few clouds at a height of 1000 ft
Probability 40% :
Temporary
from 19 at 06 UTC to 19 at 15 UTC
Scattered clouds at a height of 500 ft
Broken clouds at a height of 1400 ft, Cumulonimbus.
rain showers

TAF: ENHM 190500Z 1906/1915 26025KT 9999 FEW010 PROB40 TEMPO 1906/1915 SHRA SCT005 BKN014CB

Weather observations and forecasts of more than 4000 airports (METAR and TAF reports).

The available stations are represented by yellow and red dots on the map.

Hover mouse over dot to see the name of the station.

Then click to see weather observations and forecasts.

To change the map : click on the green buttons with a black cross to zoom in, on the green button with a dash to zoom out, or on the green arrows for adjacent maps.


METAR-TAF: